Time;durP1;ratioP1;P1;durP2;ratioP2;P2;SDS_P1;SDS_P2;PMS_P1;PMS_P2;Temp;Humidity;BMP_temperature;BMP_pressure;BME280_temperature;BME280_humidity;BME280_pressure;Samples;Min_cycle;Max_cycle;Signal;HPM_P1;HPM_P2
2022/07/13 00:00:36;;;;;;;;;6.50;6.50;;;;;27.97;28.66;101516.63;5058146;28;46203;-63
2022/07/13 00:03:03;;;;;;;;;6.25;6.00;;;;;27.95;28.29;101524.16;5056812;28;51024;-63
2022/07/13 00:05:28;;;;;;;;;6.40;5.20;;;;;27.90;28.50;101512.91;5058604;28;45235;-64
2022/07/13 00:07:54;;;;;;;;;6.50;6.50;;;;;27.87;28.29;101514.13;5056750;28;45475;-59
2022/07/13 00:10:19;;;;;;;;;5.00;4.00;;;;;27.88;29.10;101512.22;5057523;28;45434;-65
2022/07/13 00:12:45;;;;;;;;;6.00;5.00;;;;;27.84;28.82;101517.19;5056320;28;45400;-64
2022/07/13 00:15:11;;;;;;;;;5.00;5.00;;;;;27.80;28.95;101510.38;5057422;28;45298;-65
2022/07/13 00:17:36;;;;;;;;;3.00;3.00;;;;;27.80;28.67;101515.84;5057926;28;45357;-64
2022/07/13 00:20:03;;;;;;;;;8.75;5.00;;;;;27.80;29.08;101512.25;5057385;28;46539;-63
2022/07/13 00:22:29;;;;;;;;;7.60;6.80;;;;;27.77;29.11;101518.06;5057393;28;45299;-64
2022/07/13 00:24:54;;;;;;;;;5.25;4.00;;;;;27.73;28.65;101506.63;5057639;28;45420;-62
2022/07/13 00:27:19;;;;;;;;;7.75;5.25;;;;;27.65;28.78;101497.63;5057435;28;45303;-62
2022/07/13 00:29:45;;;;;;;;;5.25;5.25;;;;;27.67;28.74;101514.69;5056310;28;45410;-64
2022/07/13 00:32:10;;;;;;;;;5.25;5.25;;;;;27.67;29.43;101514.69;5056323;28;45417;-60
2022/07/13 00:34:35;;;;;;;;;6.00;6.00;;;;;27.62;29.21;101507.84;5057596;28;45349;-60
2022/07/13 00:37:01;;;;;;;;;4.00;4.00;;;;;27.60;29.30;101506.28;5058511;28;45309;-59
2022/07/13 00:39:26;;;;;;;;;8.00;7.00;;;;;27.60;29.17;101507.13;5057140;28;46010;-61
2022/07/13 00:41:52;;;;;;;;;7.75;5.25;;;;;27.55;29.35;101501.34;5057375;28;45412;-60
2022/07/13 00:44:17;;;;;;;;;6.00;6.00;;;;;27.55;29.69;101501.34;5057337;28;45242;-60
2022/07/13 00:46:53;;;;;;;;;7.50;6.25;;;;;27.55;30.02;101497.78;5056103;28;45504;-59
2022/07/13 00:49:19;;;;;;;;;8.25;7.00;;;;;27.50;29.80;101494.72;5056724;28;45235;-61
2022/07/13 00:51:44;;;;;;;;;10.50;8.50;;;;;27.52;29.79;101496.25;5057114;28;45334;-63
2022/07/13 00:54:11;;;;;;;;;13.25;11.75;;;;;27.49;29.46;101493.88;5055489;28;45426;-62
2022/07/13 00:56:37;;;;;;;;;13.50;13.50;;;;;27.47;29.30;101497.78;5055606;28;45483;-63
2022/07/13 00:59:04;;;;;;;;;15.75;15.25;;;;;27.44;30.05;101495.41;5057078;28;45371;-65
2022/07/13 01:01:30;;;;;;;;;13.25;10.75;;;;;27.37;29.97;101480.75;5057073;28;45338;-65
2022/07/13 01:03:56;;;;;;;;;9.75;9.75;;;;;27.40;29.85;101492.19;5056860;28;45340;-61
2022/07/13 01:06:22;;;;;;;;;10.00;10.00;;;;;27.36;30.13;101488.09;5055852;28;45482;-63
2022/07/13 01:08:48;;;;;;;;;9.25;8.00;;;;;27.39;29.81;101490.47;5056677;28;46320;-61
2022/07/13 01:11:13;;;;;;;;;10.75;10.75;;;;;27.37;29.56;101486.22;5056335;28;45357;-63
2022/07/13 01:13:40;;;;;;;;;12.00;8.75;;;;;27.30;29.94;101486.03;5055346;28;45214;-61
2022/07/13 01:16:08;;;;;;;;;11.25;10.00;;;;;27.31;29.24;101493.22;5056786;28;45327;-61
2022/07/13 01:18:33;;;;;;;;;11.25;10.00;;;;;27.28;30.38;101485.38;5056723;28;45586;-64
2022/07/13 01:21:00;;;;;;;;;10.75;10.75;;;;;27.29;30.18;101493.38;5056356;28;45509;-63
2022/07/13 01:23:26;;;;;;;;;10.60;10.60;;;;;27.25;30.40;101483.00;5055165;28;45373;-65
2022/07/13 01:25:56;;;;;;;;;9.75;8.50;;;;;27.25;30.20;101491.19;5056739;28;45298;-64
2022/07/13 01:28:22;;;;;;;;;13.50;12.00;;;;;27.17;30.50;101483.84;5056300;28;45344;-64
2022/07/13 01:30:48;;;;;;;;;10.00;9.00;;;;;27.19;30.39;101486.41;5055918;28;45426;-64
2022/07/13 01:33:13;;;;;;;;;10.75;8.75;;;;;27.17;30.76;101493.91;5054917;28;45455;-64
2022/07/13 01:35:39;;;;;;;;;6.50;6.50;;;;;27.13;30.64;101484.38;5056290;28;45571;-65
2022/07/13 01:38:04;;;;;;;;;11.50;8.00;;;;;27.12;30.62;101494.44;5055036;28;46609;-62
2022/07/13 01:40:30;;;;;;;;;8.25;7.75;;;;;27.03;30.28;101479.09;5055831;28;45429;-62
2022/07/13 01:42:55;;;;;;;;;9.00;8.00;;;;;27.04;30.49;101484.38;5056343;28;45442;-64
2022/07/13 01:45:23;;;;;;;;;11.75;10.50;;;;;27.01;30.49;101481.13;5055204;28;45544;-62
2022/07/13 01:47:50;;;;;;;;;9.75;8.75;;;;;27.02;31.30;101482.84;5055661;28;46116;-63
2022/07/13 01:50:18;;;;;;;;;10.25;9.25;;;;;27.00;30.33;101482.97;5055067;28;45303;-66
2022/07/13 01:52:43;;;;;;;;;8.25;8.25;;;;;26.98;31.78;101487.78;5056498;28;45409;-64
2022/07/13 01:55:10;;;;;;;;;9.25;9.25;;;;;26.97;31.38;101486.06;5055013;28;45347;-65
2022/07/13 01:57:36;;;;;;;;;14.50;12.00;;;;;26.96;30.50;101478.06;5056242;28;46192;-64
2022/07/13 02:00:07;;;;;;;;;7.25;7.25;;;;;26.95;31.93;101477.16;5056114;28;45318;-65
2022/07/13 02:02:33;;;;;;;;;9.00;9.00;;;;;26.90;30.70;101465.06;5056157;28;45449;-67
2022/07/13 02:04:58;;;;;;;;;9.75;9.50;;;;;26.90;31.34;101465.94;5056151;28;45404;-61
2022/07/13 02:07:24;;;;;;;;;11.50;8.25;;;;;26.94;31.03;101475.47;5055916;28;45598;-65
2022/07/13 02:09:50;;;;;;;;;10.75;8.75;;;;;26.94;31.30;101464.53;5057824;28;45416;-63
2022/07/13 02:12:16;;;;;;;;;8.50;8.50;;;;;26.96;30.91;101467.97;5059652;28;45395;-63
2022/07/13 02:14:41;;;;;;;;;14.75;10.50;;;;;26.97;31.33;101469.69;5059700;28;45366;-62
2022/07/13 02:17:07;;;;;;;;;8.75;8.75;;;;;26.97;31.59;101457.91;5059725;28;46127;-63
2022/07/13 02:19:32;;;;;;;;;9.00;9.00;;;;;26.95;31.21;101449.88;5058586;28;45446;-66
2022/07/13 02:21:58;;;;;;;;;15.50;10.50;;;;;26.98;30.68;101454.16;5059255;28;45244;-64
2022/07/13 02:24:23;;;;;;;;;12.75;9.50;;;;;26.97;30.64;101458.78;5059567;28;45194;-63
2022/07/13 02:26:49;;;;;;;;;8.75;8.75;;;;;26.94;30.94;101448.16;5059190;28;45328;-64
2022/07/13 02:29:15;;;;;;;;;8.40;8.40;;;;;26.94;30.81;101448.16;5059075;28;45218;-62
2022/07/13 02:31:40;;;;;;;;;7.75;6.75;;;;;26.95;30.64;101449.88;5059519;28;45336;-64
2022/07/13 02:34:06;;;;;;;;;8.75;8.75;;;;;26.96;30.58;101457.06;5059456;28;45647;-65
2022/07/13 02:36:31;;;;;;;;;9.50;8.00;;;;;26.95;30.30;101449.88;5059092;28;46809;-63
2022/07/13 02:38:56;;;;;;;;;8.00;7.00;;;;;26.90;30.93;101437.78;5058800;28;45251;-63
2022/07/13 02:41:22;;;;;;;;;9.50;9.50;;;;;26.94;30.52;101441.84;5059291;28;45251;-63
2022/07/13 02:43:48;;;;;;;;;7.25;7.00;;;;;26.96;30.41;101446.16;5059242;28;45546;-65
2022/07/13 02:46:14;;;;;;;;;10.00;8.25;;;;;26.90;30.64;101435.91;5057382;28;47427;-66
2022/07/13 02:48:39;;;;;;;;;12.25;9.75;;;;;26.93;30.04;101440.16;5059075;28;45449;-63
2022/07/13 02:51:05;;;;;;;;;8.00;6.75;;;;;26.97;30.27;101449.72;5059044;28;45798;-63
2022/07/13 02:53:30;;;;;;;;;7.75;6.25;;;;;26.96;29.86;101437.09;5058770;28;45473;-62
2022/07/13 02:55:56;;;;;;;;;10.00;7.50;;;;;26.92;29.81;101438.44;5057595;28;45423;-63
2022/07/13 02:58:21;;;;;;;;;6.25;6.25;;;;;26.97;30.26;101447.00;5058690;28;45308;-65
2022/07/13 03:00:46;;;;;;;;;7.75;6.25;;;;;26.97;31.02;101453.31;5058852;28;45480;-63
2022/07/13 03:03:12;;;;;;;;;9.50;6.00;;;;;26.96;30.33;101446.16;5059186;28;45346;-61
2022/07/13 03:05:37;;;;;;;;;6.00;6.00;;;;;26.99;30.51;101445.78;5059174;28;46445;-62
2022/07/13 03:08:03;;;;;;;;;9.50;8.00;;;;;26.96;30.81;101443.41;5057709;28;45375;-62
2022/07/13 03:10:29;;;;;;;;;6.00;6.00;;;;;26.97;30.51;101442.38;5059130;28;45307;-65
2022/07/13 03:12:55;;;;;;;;;8.75;6.75;;;;;26.93;30.86;101435.53;5058835;28;45576;-64
2022/07/13 03:15:21;;;;;;;;;7.00;7.00;;;;;26.93;30.75;101438.28;5057109;28;45491;-65
2022/07/13 03:17:46;;;;;;;;;6.40;6.20;;;;;26.93;30.71;101435.53;5058497;28;45290;-65
2022/07/13 03:20:12;;;;;;;;;8.00;7.00;;;;;26.96;31.22;101445.28;5057479;28;45315;-64
2022/07/13 03:22:37;;;;;;;;;7.75;6.50;;;;;26.98;30.70;101452.28;5058964;28;45549;-65
2022/07/13 03:25:04;;;;;;;;;6.75;6.75;;;;;26.98;30.92;101455.00;5058174;28;46212;-64
2022/07/13 03:27:30;;;;;;;;;6.60;5.00;;;;;26.86;31.13;101429.09;5058204;28;45385;-61
2022/07/13 03:29:55;;;;;;;;;7.00;7.00;;;;;26.97;30.89;101447.00;5058406;28;45350;-64
2022/07/13 03:32:21;;;;;;;;;9.00;6.00;;;;;26.91;31.48;101439.47;5057273;28;45841;-65
2022/07/13 03:34:46;;;;;;;;;9.25;6.75;;;;;26.92;31.58;101450.22;5057930;28;45475;-65
2022/07/13 03:37:12;;;;;;;;;5.25;5.25;;;;;26.93;31.33;101445.63;5057802;28;45485;-61
2022/07/13 03:39:38;;;;;;;;;4.00;3.00;;;;;26.90;31.40;101443.22;5058670;28;45441;-65
2022/07/13 03:42:04;;;;;;;;;9.50;5.75;;;;;26.86;31.55;101434.53;5058471;28;45244;-64
2022/07/13 03:44:30;;;;;;;;;6.75;5.00;;;;;26.86;31.14;101440.00;5057939;28;45306;-63
2022/07/13 03:46:56;;;;;;;;;5.00;5.00;;;;;26.86;31.59;101441.88;5056505;28;45403;-62
2022/07/13 03:49:21;;;;;;;;;6.00;5.00;;;;;26.85;31.32;101446.50;5056718;28;45330;-63
2022/07/13 03:51:48;;;;;;;;;7.00;7.00;;;;;26.84;32.09;101444.78;5058044;28;45491;-64
2022/07/13 03:54:14;;;;;;;;;8.00;7.50;;;;;26.81;31.94;101436.91;5057751;28;46202;-63
2022/07/13 03:56:39;;;;;;;;;6.80;6.80;;;;;26.86;31.95;101450.91;5058162;28;45421;-65
2022/07/13 03:59:05;;;;;;;;;7.75;6.00;;;;;26.84;31.26;101454.84;5058018;28;45355;-65
2022/07/13 04:01:31;;;;;;;;;5.50;5.50;;;;;26.75;31.63;101440.34;5057860;28;45481;-62
2022/07/13 04:03:58;;;;;;;;;7.00;5.25;;;;;26.82;31.17;101444.06;5057540;28;46100;-64
2022/07/13 04:06:25;;;;;;;;;6.80;6.80;;;;;26.82;31.61;101446.81;5055917;28;45420;-63
2022/07/13 04:08:51;;;;;;;;;5.75;4.75;;;;;26.75;32.06;101448.53;5057719;28;45356;-63
2022/07/13 04:11:17;;;;;;;;;9.00;5.50;;;;;26.83;32.24;101459.47;5057986;28;45593;-60
2022/07/13 04:13:42;;;;;;;;;6.50;6.50;;;;;26.84;31.77;101458.44;5057653;28;45910;-59
2022/07/13 04:16:08;;;;;;;;;5.25;5.25;;;;;26.85;32.66;101449.22;5057571;28;45431;-59
2022/07/13 04:18:34;;;;;;;;;6.75;5.25;;;;;26.84;32.02;101455.69;5057682;28;45467;-59
2022/07/13 04:20:59;;;;;;;;;8.50;7.00;;;;;26.79;31.80;101446.31;5057682;28;45282;-62
2022/07/13 04:23:25;;;;;;;;;8.00;7.25;;;;;26.83;31.57;101450.41;5057356;28;45396;-59
2022/07/13 04:25:50;;;;;;;;;6.50;5.75;;;;;26.78;31.74;101437.28;5039463;28;45362;-60
2022/07/13 04:28:16;;;;;;;;;9.00;9.00;;;;;26.73;31.28;101428.75;5056252;28;45348;-60
2022/07/13 04:30:41;;;;;;;;;10.00;6.00;;;;;26.85;31.53;101449.22;5057587;28;45557;-59
2022/07/13 04:33:07;;;;;;;;;7.00;7.00;;;;;26.84;31.66;101447.50;5057581;28;45364;-62
2022/07/13 04:35:32;;;;;;;;;6.25;6.25;;;;;26.83;31.95;101445.81;5057378;28;45420;-62
2022/07/13 04:37:57;;;;;;;;;5.00;5.00;;;;;26.74;31.54;101431.31;5057397;28;45328;-58
2022/07/13 04:40:23;;;;;;;;;8.00;6.50;;;;;26.85;31.50;101442.91;5057550;28;45526;-64
2022/07/13 04:42:48;;;;;;;;;6.25;6.00;;;;;26.85;31.36;101449.22;5056948;28;45386;-63
2022/07/13 04:45:18;;;;;;;;;8.00;5.25;;;;;26.86;31.85;101445.47;5057403;28;45459;-63
2022/07/13 04:47:43;;;;;;;;;4.50;4.50;;;;;26.87;31.12;101441.72;5057268;28;45370;-62
2022/07/13 04:50:09;;;;;;;;;4.00;4.00;;;;;26.86;31.95;101434.53;5057588;28;45461;-65
2022/07/13 04:52:34;;;;;;;;;6.00;4.75;;;;;26.91;31.88;101450.41;5056796;28;45964;-61
2022/07/13 04:55:02;;;;;;;;;7.00;5.75;;;;;26.92;31.99;101447.50;5056945;28;45534;-59
2022/07/13 04:57:27;;;;;;;;;6.25;4.75;;;;;26.93;31.31;101441.00;5057138;28;45302;-62
2022/07/13 04:59:52;;;;;;;;;5.00;5.00;;;;;26.96;32.02;101448.03;5057178;28;45435;-62
2022/07/13 05:02:18;;;;;;;;;5.25;5.25;;;;;26.95;32.63;101444.41;5056671;28;45335;-61
2022/07/13 05:04:43;;;;;;;;;6.00;6.00;;;;;26.92;31.81;101447.50;5056736;28;45215;-60
2022/07/13 05:07:08;;;;;;;;;6.00;6.00;;;;;26.88;31.55;101429.75;5055774;28;45908;-60
2022/07/13 05:09:34;;;;;;;;;5.25;5.25;;;;;26.98;31.91;101446.81;5057339;28;45550;-66
2022/07/13 05:12:05;;;;;;;;;6.75;5.75;;;;;26.99;31.60;101445.78;5056664;28;45497;-64
2022/07/13 05:14:30;;;;;;;;;6.00;6.00;;;;;26.99;31.25;101450.41;5056345;28;45372;-64
2022/07/13 05:16:56;;;;;;;;;7.25;6.50;;;;;26.97;32.11;101453.31;5056790;28;45330;-64
2022/07/13 05:19:21;;;;;;;;;9.25;6.75;;;;;26.95;31.80;101441.69;5056747;28;45401;-64
2022/07/13 05:21:47;;;;;;;;;7.00;7.00;;;;;26.99;31.92;101451.25;5056631;28;45539;-63
2022/07/13 05:24:12;;;;;;;;;5.25;5.25;;;;;27.00;32.63;101443.91;5056478;28;45377;-62
2022/07/13 05:26:37;;;;;;;;;4.50;4.50;;;;;27.01;31.13;101456.56;5056624;28;45322;-63
2022/07/13 05:29:04;;;;;;;;;6.75;5.25;;;;;26.99;31.87;101451.25;5056852;28;45448;-63
2022/07/13 05:31:31;;;;;;;;;10.00;5.75;;;;;27.02;31.81;101448.19;5056304;28;46599;-65
2022/07/13 05:33:56;;;;;;;;;6.00;6.00;;;;;27.03;31.88;101451.78;5056312;28;45391;-63
2022/07/13 05:36:22;;;;;;;;;5.25;5.25;;;;;27.04;30.92;101442.56;5056390;28;45418;-62
2022/07/13 05:38:48;;;;;;;;;7.50;3.00;;;;;27.09;31.05;101450.25;5056908;28;45526;-63
2022/07/13 05:41:14;;;;;;;;;7.75;6.00;;;;;27.07;31.43;101452.28;5056049;28;46976;-62
2022/07/13 05:43:40;;;;;;;;;3.75;3.75;;;;;27.11;31.05;101457.25;5055330;28;45539;-64
2022/07/13 05:46:07;;;;;;;;;3.50;3.50;;;;;27.11;31.83;101459.13;5056325;27;45444;-62
2022/07/13 05:48:33;;;;;;;;;6.75;5.75;;;;;27.15;31.37;101457.75;5056410;28;45412;-63
2022/07/13 05:50:59;;;;;;;;;5.75;5.75;;;;;27.13;30.91;101457.06;5056152;28;45359;-62
2022/07/13 05:53:24;;;;;;;;;6.00;6.00;;;;;27.16;30.86;101451.25;5056136;28;45266;-63
2022/07/13 05:55:50;;;;;;;;;4.75;4.50;;;;;27.22;30.47;101461.50;5056299;28;45342;-60
2022/07/13 05:58:15;;;;;;;;;6.00;4.75;;;;;27.23;31.01;101460.47;5056897;28;45310;-62
2022/07/13 06:00:40;;;;;;;;;6.00;6.00;;;;;27.26;30.81;101469.16;5055911;28;46060;-62
2022/07/13 06:03:06;;;;;;;;;4.25;4.00;;;;;27.24;30.95;101449.38;5054672;28;45363;-60
2022/07/13 06:05:31;;;;;;;;;5.75;5.25;;;;;27.34;30.46;101465.53;5055849;28;45397;-63
2022/07/13 06:07:57;;;;;;;;;5.25;5.25;;;;;27.35;30.62;101461.81;5054690;28;45577;-61
2022/07/13 06:10:22;;;;;;;;;5.00;5.00;;;;;27.40;30.66;101464.88;5055812;28;45311;-64
2022/07/13 06:12:48;;;;;;;;;7.75;4.75;;;;;27.47;30.74;101471.31;5038090;28;45407;-61
2022/07/13 06:15:13;;;;;;;;;6.50;4.25;;;;;27.50;30.64;101475.59;5055581;28;45524;-61
2022/07/13 06:17:38;;;;;;;;;4.25;4.25;;;;;27.49;30.24;101472.03;5054693;28;45407;-53
2022/07/13 06:20:05;;;;;;;;;6.25;5.75;;;;;27.52;30.45;101468.94;5054462;28;47795;-59
2022/07/13 06:22:31;;;;;;;;;6.00;5.40;;;;;27.55;30.09;101474.03;5055866;28;45749;-52
2022/07/13 06:24:56;;;;;;;;;4.00;3.25;;;;;27.57;31.12;101466.50;5055851;28;45877;-53
2022/07/13 06:27:22;;;;;;;;;7.25;6.00;;;;;27.58;30.49;101465.47;5056205;28;45376;-53
2022/07/13 06:29:47;;;;;;;;;4.50;4.50;;;;;27.66;30.40;101477.47;5056544;28;47065;-51
2022/07/13 06:32:13;;;;;;;;;6.00;4.50;;;;;27.69;29.59;101468.91;5057062;28;45310;-58
2022/07/13 06:34:38;;;;;;;;;5.00;5.00;;;;;27.68;30.61;101459.84;5055306;28;45805;-56
2022/07/13 06:37:04;;;;;;;;;5.50;5.50;;;;;27.78;30.87;101460.50;5055747;28;45509;-62
2022/07/13 06:39:29;;;;;;;;;4.50;4.50;;;;;27.87;30.21;101461.31;5055294;28;45384;-65
2022/07/13 06:41:55;;;;;;;;;6.50;5.75;;;;;27.93;30.45;101455.13;5055507;28;45256;-64
2022/07/13 06:44:21;;;;;;;;;4.20;4.00;;;;;27.99;29.64;101462.59;5055829;28;45253;-65
2022/07/13 06:46:46;;;;;;;;;6.25;4.75;;;;;28.04;30.39;101462.09;5055370;28;45554;-60
2022/07/13 06:49:12;;;;;;;;;6.75;5.75;;;;;28.07;30.54;101457.09;5055232;28;46147;-67
2022/07/13 06:51:38;;;;;;;;;8.50;6.75;;;;;28.14;29.79;101469.03;5055353;28;45240;-60
2022/07/13 06:54:03;;;;;;;;;7.25;5.50;;;;;28.17;30.58;101462.34;5056333;28;45290;-63
2022/07/13 06:56:29;;;;;;;;;7.25;4.50;;;;;28.14;29.94;101458.09;5058758;28;45391;-62
2022/07/13 06:58:54;;;;;;;;;5.00;4.25;;;;;28.15;29.61;101465.28;5073919;27;47394;-60
2022/07/13 07:01:20;;;;;;;;;6.50;4.75;;;;;28.23;29.65;101478.03;5058451;28;45566;-61
2022/07/13 07:03:46;;;;;;;;;5.75;5.75;;;;;28.27;29.73;101464.91;5058397;28;45405;-64
2022/07/13 07:06:12;;;;;;;;;7.00;5.75;;;;;28.32;30.15;101467.94;5058754;28;45651;-64
2022/07/13 07:08:37;;;;;;;;;4.75;4.75;;;;;28.41;30.24;101484.13;5058414;28;45326;-67
2022/07/13 07:11:03;;;;;;;;;7.75;7.75;;;;;28.47;30.65;101479.81;5058585;28;45255;-66
2022/07/13 07:13:28;;;;;;;;;8.25;6.75;;;;;28.52;30.12;101480.13;5058619;28;45327;-65
2022/07/13 07:15:54;;;;;;;;;13.00;6.25;;;;;28.40;29.67;101467.91;5059080;28;45652;-63
2022/07/13 07:18:21;;;;;;;;;5.25;5.25;;;;;28.49;29.75;101464.91;5058767;28;45416;-67
2022/07/13 07:20:48;;;;;;;;;6.00;6.00;;;;;28.61;29.42;101469.94;5058258;28;45356;-63
2022/07/13 07:23:14;;;;;;;;;6.40;6.20;;;;;28.73;29.48;101466.59;5058305;28;45273;-58
2022/07/13 07:25:40;;;;;;;;;8.25;7.00;;;;;28.78;29.18;101461.44;5058442;28;45464;-62
2022/07/13 07:28:07;;;;;;;;;5.25;5.25;;;;;28.90;30.13;101469.22;5057950;28;45346;-59
2022/07/13 07:30:32;;;;;;;;;6.80;5.40;;;;;28.88;28.89;101471.31;5057936;28;45468;-62
2022/07/13 07:32:57;;;;;;;;;4.00;4.00;;;;;28.91;29.25;101473.66;5058100;28;45306;-65
2022/07/13 07:35:23;;;;;;;;;6.75;5.25;;;;;28.90;28.75;101480.19;5058406;28;45470;-65
2022/07/13 07:37:48;;;;;;;;;4.50;4.50;;;;;28.91;29.04;101468.19;5058133;28;46064;-67
2022/07/13 07:40:13;;;;;;;;;8.00;5.75;;;;;28.93;29.43;101474.34;5057972;28;45465;-64
2022/07/13 07:42:39;;;;;;;;;5.00;5.00;;;;;28.97;28.56;101478.41;5056654;28;45316;-66
2022/07/13 07:45:08;;;;;;;;;7.00;4.00;;;;;28.99;28.99;101463.50;5058065;28;45525;-67
2022/07/13 07:47:33;;;;;;;;;6.00;6.00;;;;;29.05;29.17;101467.41;5056342;28;48375;-65
2022/07/13 07:49:59;;;;;;;;;5.25;4.75;;;;;29.19;29.47;101468.47;5057822;28;45382;-66
2022/07/13 07:52:24;;;;;;;;;6.50;6.50;;;;;29.26;29.55;101473.00;5058227;28;45432;-66
2022/07/13 07:54:50;;;;;;;;;6.75;6.75;;;;;29.29;29.49;101469.88;5058042;28;45582;-63
2022/07/13 07:57:15;;;;;;;;;6.50;5.50;;;;;29.33;29.54;101467.63;5056381;28;48014;-63
2022/07/13 07:59:41;;;;;;;;;6.50;3.75;;;;;29.38;29.16;101474.22;5056184;28;45388;-62
2022/07/13 08:02:07;;;;;;;;;5.75;5.75;;;;;29.44;28.81;101467.16;5058133;28;45330;-58
2022/07/13 08:04:33;;;;;;;;;7.00;5.60;;;;;29.46;29.16;101467.81;5058129;28;45481;-62
2022/07/13 08:06:59;;;;;;;;;3.50;3.25;;;;;29.50;29.27;101471.06;5056972;28;45260;-66
2022/07/13 08:09:25;;;;;;;;;4.40;4.40;;;;;29.52;28.69;101464.34;5058085;28;45280;-62
2022/07/13 08:11:51;;;;;;;;;3.75;3.25;;;;;29.51;28.69;101468.13;5058425;28;45426;-62
2022/07/13 08:14:16;;;;;;;;;6.25;5.00;;;;;29.57;28.66;101474.75;5056936;28;45573;-66
2022/07/13 08:16:42;;;;;;;;;5.00;5.00;;;;;29.55;28.33;101463.97;5057810;28;45507;-66
2022/07/13 08:19:07;;;;;;;;;3.75;3.75;;;;;29.49;28.76;101461.16;5057659;28;45757;-64
2022/07/13 08:21:34;;;;;;;;;5.00;4.75;;;;;29.46;28.07;101459.59;5057538;28;45183;-65
2022/07/13 08:23:59;;;;;;;;;4.00;4.00;;;;;29.36;27.92;101448.91;5057675;28;45619;-62
2022/07/13 08:26:30;;;;;;;;;5.25;3.75;;;;;29.35;28.43;101455.44;5056451;28;45383;-64
2022/07/13 08:28:57;;;;;;;;;4.80;3.80;;;;;29.42;28.13;101465.63;5072986;28;45366;-63
2022/07/13 08:31:23;;;;;;;;;5.20;4.00;;;;;29.54;28.40;101464.16;5057855;28;45768;-62
2022/07/13 08:39:38;;;;;;;;;2.00;2.00;;;;;30.68;28.50;101459.88;5075149;28;45343;-62
2022/07/13 08:42:04;;;;;;;;;3.25;3.00;;;;;31.13;26.37;101455.00;5075564;28;45443;-65
2022/07/13 08:44:31;;;;;;;;;3.00;3.00;;;;;31.57;26.79;101462.91;5067246;28;45641;-64
2022/07/13 08:46:58;;;;;;;;;3.60;3.00;;;;;32.05;26.42;101463.81;5057372;28;46420;-66
2022/07/13 08:49:25;;;;;;;;;4.00;4.00;;;;;32.44;25.00;101446.59;5057224;28;45397;-66
2022/07/13 08:51:51;;;;;;;;;2.20;2.20;;;;;32.81;25.13;101453.41;5057128;28;45373;-66
2022/07/13 08:54:16;;;;;;;;;3.00;3.00;;;;;33.11;24.47;101453.84;5057588;28;45535;-62
2022/07/13 08:56:42;;;;;;;;;1.50;1.50;;;;;33.41;23.11;101454.25;5056922;28;45337;-66
2022/07/13 08:59:08;;;;;;;;;3.25;3.00;;;;;33.79;24.16;101445.22;5056721;28;45289;-64
2022/07/13 09:01:33;;;;;;;;;3.00;3.00;;;;;34.09;23.62;101434.50;5057006;28;45333;-67
2022/07/13 09:04:00;;;;;;;;;2.00;2.00;;;;;34.55;22.65;101449.97;5057461;28;45545;-67
2022/07/13 09:06:43;;;;;;;;;3.00;3.00;;;;;34.94;23.00;101446.06;5056643;28;45455;-64
2022/07/13 09:09:31;;;;;;;;;5.20;3.00;;;;;35.32;21.84;101442.31;5056742;28;45179;-58
2022/07/13 09:12:15;;;;;;;;;3.60;3.60;;;;;35.67;22.24;101443.41;5056927;28;45420;-63
2022/07/13 09:14:41;;;;;;;;;4.20;1.80;;;;;35.90;20.92;101433.56;5056626;28;45407;-61
2022/07/13 09:17:06;;;;;;;;;2.50;1.75;;;;;36.22;21.30;101446.13;5055947;28;46382;-61
2022/07/13 09:19:38;;;;;;;;;4.50;3.50;;;;;36.45;20.57;101445.38;5056313;28;45364;-61
2022/07/13 09:22:21;;;;;;;;;3.80;3.80;;;;;36.73;21.41;101441.13;5056941;28;45264;-64
2022/07/13 09:24:48;;;;;;;;;5.00;3.80;;;;;37.00;19.05;101445.16;5056902;28;45303;-67
2022/07/13 09:27:15;;;;;;;;;1.60;1.60;;;;;37.21;19.28;101427.91;5056049;28;46442;-66
2022/07/13 09:29:41;;;;;;;;;3.20;3.20;;;;;37.50;20.36;101439.09;5055395;28;45769;-66
2022/07/13 09:32:10;;;;;;;;;3.20;3.20;;;;;37.78;19.14;101438.38;5056634;28;45447;-67
2022/07/13 09:34:46;;;;;;;;;4.60;4.20;;;;;38.10;19.80;101435.09;5056452;28;45551;-64
2022/07/13 09:37:14;;;;;;;;;3.00;1.60;;;;;38.35;19.19;101435.63;5056361;28;45294;-65
2022/07/13 09:40:07;;;;;;;;;2.40;2.40;;;;;38.57;19.56;101431.03;5056358;28;45410;-60
2022/07/13 09:42:38;;;;;;;;;2.80;2.80;;;;;38.80;19.00;101432.81;5056550;28;45410;-63
2022/07/13 09:47:57;;;;;;;;;4.00;4.00;;;;;39.10;19.16;101440.84;5055779;28;45482;-64
2022/07/13 09:50:24;;;;;;;;;4.60;3.60;;;;;39.13;18.63;101443.09;5057923;28;45771;-65
2022/07/13 09:52:51;;;;;;;;;3.60;2.80;;;;;39.33;18.30;101434.22;5057283;28;45384;-66
2022/07/13 09:55:24;;;;;;;;;2.40;2.20;;;;;39.43;18.57;101436.28;5056488;28;45553;-66
2022/07/13 09:57:59;;;;;;;;;4.60;3.60;;;;;39.70;18.04;101439.16;5055986;28;46336;-61
2022/07/13 10:00:27;;;;;;;;;6.00;4.80;;;;;39.76;16.79;101433.41;5055885;28;45275;-58
2022/07/13 10:02:52;;;;;;;;;5.00;4.00;;;;;39.92;18.13;101437.22;5054820;28;45411;-59
2022/07/13 10:05:19;;;;;;;;;2.75;2.25;;;;;40.04;17.07;101428.75;5056482;28;45350;-61
2022/07/13 10:07:47;;;;;;;;;4.00;4.00;;;;;40.14;17.36;101426.09;5054571;28;45430;-59
2022/07/13 10:10:16;;;;;;;;;3.00;2.20;;;;;40.29;16.88;101434.59;5055902;28;45345;-64
2022/07/13 10:12:43;;;;;;;;;4.00;3.60;;;;;40.36;17.27;101431.56;5055896;28;45339;-66
2022/07/13 10:15:11;;;;;;;;;2.00;2.00;;;;;40.39;16.40;101428.28;5054589;28;45404;-65
2022/07/13 10:17:38;;;;;;;;;4.40;3.00;;;;;40.25;16.57;101435.41;5055780;28;45411;-64
2022/07/13 10:20:10;;;;;;;;;2.00;2.00;;;;;40.09;16.50;101426.00;5056160;28;45453;-65
2022/07/13 10:22:45;;;;;;;;;2.80;1.80;;;;;39.97;16.56;101436.44;5055992;28;45414;-66
2022/07/13 10:25:10;;;;;;;;;3.80;2.60;;;;;39.84;16.64;101429.31;5055784;28;45474;-63
2022/07/13 10:27:37;;;;;;;;;3.25;3.25;;;;;39.71;17.26;101424.16;5055230;28;45421;-66
2022/07/13 10:30:21;;;;;;;;;4.80;3.80;;;;;39.45;18.22;101423.78;5057409;28;45437;-65
2022/07/13 10:32:47;;;;;;;;;4.60;4.40;;;;;39.06;16.92;101422.06;5059130;28;45466;-62
2022/07/13 10:35:16;;;;;;;;;3.75;3.25;;;;;38.55;18.02;101416.53;5059405;28;45569;-64
2022/07/13 10:38:00;;;;;;;;;4.20;3.00;;;;;38.33;18.61;101407.25;5057196;28;45447;-65
2022/07/13 10:40:30;;;;;;;;;2.80;2.80;;;;;37.95;18.51;101414.28;5058870;28;45316;-65
2022/07/13 10:42:57;;;;;;;;;3.40;3.40;;;;;37.47;18.83;101421.00;5057696;28;45472;-59
2022/07/13 10:45:31;;;;;;;;;5.60;3.00;;;;;37.17;18.86;101417.53;5059169;28;45441;-62
2022/07/13 10:47:57;;;;;;;;;3.40;3.40;;;;;36.96;19.17;101423.69;5058532;28;45957;-64
2022/07/13 10:50:23;;;;;;;;;2.75;2.75;;;;;36.59;19.03;101418.31;5058701;28;45425;-65
2022/07/13 10:52:49;;;;;;;;;4.00;4.00;;;;;36.22;19.72;101409.28;5059179;28;45545;-63
2022/07/13 10:55:27;;;;;;;;;2.60;2.60;;;;;35.92;20.17;101420.34;5059117;28;45228;-68
2022/07/13 10:57:53;;;;;;;;;3.40;3.40;;;;;35.69;20.30;101410.84;5058797;28;46186;-66
2022/07/13 11:00:19;;;;;;;;;3.50;3.50;;;;;35.47;20.43;101409.59;5059150;28;45304;-65
2022/07/13 11:02:55;;;;;;;;;4.50;2.75;;;;;35.35;21.08;101416.94;5059127;28;45583;-63
2022/07/13 11:05:26;;;;;;;;;4.00;4.00;;;;;35.23;20.66;101413.25;5059033;28;45312;-64
2022/07/13 11:07:53;;;;;;;;;3.60;3.60;;;;;35.16;20.93;101413.34;5058764;28;46184;-66
2022/07/13 11:10:23;;;;;;;;;2.80;2.80;;;;;35.03;20.74;101417.06;5058737;28;45255;-65
2022/07/13 11:13:04;;;;;;;;;4.40;4.00;;;;;34.85;21.44;101412.31;5058790;28;45346;-65
2022/07/13 11:15:50;;;;;;;;;2.80;2.80;;;;;34.78;21.28;101418.97;5058113;28;45508;-67
2022/07/13 11:18:21;;;;;;;;;3.80;3.80;;;;;34.74;21.17;101406.66;5058490;28;46153;-60
2022/07/13 11:20:59;;;;;;;;;4.60;3.80;;;;;34.70;21.82;101409.03;5057046;28;45422;-63
2022/07/13 11:26:21;;;;;;;;;3.00;3.00;;;;;34.57;21.45;101407.22;5058588;28;45362;-66
2022/07/13 11:28:55;;;;;;;;;3.40;3.40;;;;;34.57;22.34;101409.16;5058400;28;45454;-68
2022/07/13 11:31:21;;;;;;;;;4.20;3.00;;;;;34.57;21.88;101398.09;5059167;28;45339;-65
2022/07/13 11:33:50;;;;;;;;;2.20;2.20;;;;;34.56;22.47;101396.41;5058860;28;45338;-63